sensor_id;sensor_type;location;lat;lon;timestamp;P1;durP1;ratioP1;P2;durP2;ratioP2
66946;SDS011;53853;51.982;5.928;2024-03-08T00:01:22;25.55;;;18.25;;
66946;SDS011;53853;51.982;5.928;2024-03-08T00:03:52;23.90;;;16.65;;
66946;SDS011;53853;51.982;5.928;2024-03-08T00:06:22;21.55;;;16.70;;
66946;SDS011;53853;51.982;5.928;2024-03-08T00:08:53;27.92;;;19.27;;
66946;SDS011;53853;51.982;5.928;2024-03-08T00:11:25;22.55;;;16.48;;
66946;SDS011;53853;51.982;5.928;2024-03-08T00:13:57;23.85;;;18.60;;
66946;SDS011;53853;51.982;5.928;2024-03-08T00:16:26;26.23;;;20.10;;
66946;SDS011;53853;51.982;5.928;2024-03-08T00:18:56;26.48;;;18.05;;
66946;SDS011;53853;51.982;5.928;2024-03-08T00:21:28;21.15;;;16.23;;
66946;SDS011;53853;51.982;5.928;2024-03-08T00:24:08;22.45;;;15.80;;
66946;SDS011;53853;51.982;5.928;2024-03-08T00:26:41;24.63;;;17.85;;
66946;SDS011;53853;51.982;5.928;2024-03-08T00:29:10;25.98;;;17.15;;
66946;SDS011;53853;51.982;5.928;2024-03-08T00:31:40;22.77;;;16.35;;
66946;SDS011;53853;51.982;5.928;2024-03-08T00:34:10;26.73;;;19.60;;
66946;SDS011;53853;51.982;5.928;2024-03-08T00:36:40;22.33;;;16.60;;
66946;SDS011;53853;51.982;5.928;2024-03-08T00:39:10;24.70;;;18.73;;
66946;SDS011;53853;51.982;5.928;2024-03-08T00:41:43;26.30;;;19.73;;
66946;SDS011;53853;51.982;5.928;2024-03-08T00:44:13;24.23;;;17.85;;
66946;SDS011;53853;51.982;5.928;2024-03-08T00:46:43;27.73;;;18.15;;
66946;SDS011;53853;51.982;5.928;2024-03-08T00:49:12;23.90;;;17.30;;
66946;SDS011;53853;51.982;5.928;2024-03-08T00:51:42;27.60;;;19.88;;
66946;SDS011;53853;51.982;5.928;2024-03-08T00:54:12;28.67;;;19.25;;
66946;SDS011;53853;51.982;5.928;2024-03-08T00:56:45;25.55;;;17.45;;
66946;SDS011;53853;51.982;5.928;2024-03-08T00:59:14;25.20;;;17.77;;
66946;SDS011;53853;51.982;5.928;2024-03-08T01:01:44;22.42;;;16.73;;
66946;SDS011;53853;51.982;5.928;2024-03-08T01:04:14;25.10;;;18.45;;
66946;SDS011;53853;51.982;5.928;2024-03-08T01:06:44;22.45;;;15.75;;
66946;SDS011;53853;51.982;5.928;2024-03-08T01:09:14;25.70;;;17.58;;
66946;SDS011;53853;51.982;5.928;2024-03-08T01:11:48;22.60;;;17.65;;
66946;SDS011;53853;51.982;5.928;2024-03-08T01:14:18;22.85;;;16.88;;
66946;SDS011;53853;51.982;5.928;2024-03-08T01:16:48;25.10;;;19.38;;
66946;SDS011;53853;51.982;5.928;2024-03-08T01:19:18;22.17;;;17.10;;
66946;SDS011;53853;51.982;5.928;2024-03-08T01:21:49;23.48;;;16.75;;
66946;SDS011;53853;51.982;5.928;2024-03-08T01:24:21;20.92;;;17.77;;
66946;SDS011;53853;51.982;5.928;2024-03-08T01:26:53;25.08;;;18.95;;
66946;SDS011;53853;51.982;5.928;2024-03-08T01:29:23;23.35;;;16.92;;
66946;SDS011;53853;51.982;5.928;2024-03-08T01:31:55;27.25;;;19.50;;
66946;SDS011;53853;51.982;5.928;2024-03-08T01:34:27;28.00;;;18.73;;
66946;SDS011;53853;51.982;5.928;2024-03-08T01:36:58;22.00;;;17.35;;
66946;SDS011;53853;51.982;5.928;2024-03-08T01:39:28;23.25;;;18.83;;
66946;SDS011;53853;51.982;5.928;2024-03-08T01:42:01;23.88;;;18.48;;
66946;SDS011;53853;51.982;5.928;2024-03-08T01:44:31;22.63;;;16.27;;
66946;SDS011;53853;51.982;5.928;2024-03-08T01:47:00;18.70;;;16.13;;
66946;SDS011;53853;51.982;5.928;2024-03-08T01:49:30;22.83;;;16.58;;
66946;SDS011;53853;51.982;5.928;2024-03-08T01:52:01;18.75;;;16.27;;
66946;SDS011;53853;51.982;5.928;2024-03-08T01:54:31;21.08;;;16.50;;
66946;SDS011;53853;51.982;5.928;2024-03-08T01:57:03;21.95;;;17.08;;
66946;SDS011;53853;51.982;5.928;2024-03-08T01:59:34;22.10;;;17.75;;
66946;SDS011;53853;51.982;5.928;2024-03-08T02:02:04;22.63;;;18.50;;
66946;SDS011;53853;51.982;5.928;2024-03-08T02:04:35;22.00;;;16.88;;
66946;SDS011;53853;51.982;5.928;2024-03-08T02:07:05;23.88;;;17.95;;
66946;SDS011;53853;51.982;5.928;2024-03-08T02:09:35;19.75;;;16.38;;
66946;SDS011;53853;51.982;5.928;2024-03-08T02:12:07;24.52;;;17.17;;
66946;SDS011;53853;51.982;5.928;2024-03-08T02:14:39;19.80;;;16.02;;
66946;SDS011;53853;51.982;5.928;2024-03-08T02:17:09;25.02;;;19.13;;
66946;SDS011;53853;51.982;5.928;2024-03-08T02:19:39;24.30;;;18.10;;
66946;SDS011;53853;51.982;5.928;2024-03-08T02:22:12;21.73;;;15.95;;
66946;SDS011;53853;51.982;5.928;2024-03-08T02:24:42;22.23;;;18.48;;
66946;SDS011;53853;51.982;5.928;2024-03-08T02:27:12;23.50;;;18.75;;
66946;SDS011;53853;51.982;5.928;2024-03-08T02:29:42;22.20;;;17.50;;
66946;SDS011;53853;51.982;5.928;2024-03-08T02:32:13;20.75;;;16.95;;
66946;SDS011;53853;51.982;5.928;2024-03-08T02:34:43;21.30;;;16.55;;
66946;SDS011;53853;51.982;5.928;2024-03-08T02:37:16;21.77;;;16.83;;
66946;SDS011;53853;51.982;5.928;2024-03-08T02:39:46;21.33;;;17.42;;
66946;SDS011;53853;51.982;5.928;2024-03-08T02:42:16;21.63;;;17.95;;
66946;SDS011;53853;51.982;5.928;2024-03-08T02:44:45;22.20;;;18.30;;
66946;SDS011;53853;51.982;5.928;2024-03-08T02:47:15;20.73;;;17.08;;
66946;SDS011;53853;51.982;5.928;2024-03-08T02:49:46;22.90;;;17.33;;
66946;SDS011;53853;51.982;5.928;2024-03-08T02:52:19;22.75;;;18.42;;
66946;SDS011;53853;51.982;5.928;2024-03-08T02:54:49;20.15;;;16.27;;
66946;SDS011;53853;51.982;5.928;2024-03-08T02:57:19;23.08;;;18.02;;
66946;SDS011;53853;51.982;5.928;2024-03-08T02:59:49;20.63;;;16.65;;
66946;SDS011;53853;51.982;5.928;2024-03-08T03:02:18;22.20;;;18.05;;
66946;SDS011;53853;51.982;5.928;2024-03-08T03:04:49;21.15;;;18.02;;
66946;SDS011;53853;51.982;5.928;2024-03-08T03:07:22;21.50;;;17.52;;
66946;SDS011;53853;51.982;5.928;2024-03-08T03:09:53;23.23;;;19.25;;
66946;SDS011;53853;51.982;5.928;2024-03-08T03:12:23;22.23;;;17.38;;
66946;SDS011;53853;51.982;5.928;2024-03-08T03:14:53;19.70;;;15.88;;
66946;SDS011;53853;51.982;5.928;2024-03-08T03:17:23;19.63;;;15.85;;
66946;SDS011;53853;51.982;5.928;2024-03-08T03:19:53;22.70;;;18.67;;
66946;SDS011;53853;51.982;5.928;2024-03-08T03:22:25;23.65;;;18.83;;
66946;SDS011;53853;51.982;5.928;2024-03-08T03:24:56;21.25;;;17.90;;
66946;SDS011;53853;51.982;5.928;2024-03-08T03:27:28;23.67;;;19.35;;
66946;SDS011;53853;51.982;5.928;2024-03-08T03:29:58;22.75;;;17.52;;
66946;SDS011;53853;51.982;5.928;2024-03-08T03:32:46;23.63;;;17.80;;
66946;SDS011;53853;51.982;5.928;2024-03-08T03:35:17;21.42;;;16.35;;
66946;SDS011;53853;51.982;5.928;2024-03-08T03:37:49;24.50;;;19.15;;
66946;SDS011;53853;51.982;5.928;2024-03-08T03:40:27;24.55;;;19.10;;
66946;SDS011;53853;51.982;5.928;2024-03-08T03:42:57;22.02;;;18.10;;
66946;SDS011;53853;51.982;5.928;2024-03-08T03:45:28;21.85;;;17.90;;
66946;SDS011;53853;51.982;5.928;2024-03-08T03:48:01;22.65;;;17.45;;
66946;SDS011;53853;51.982;5.928;2024-03-08T03:50:32;18.77;;;15.95;;
66946;SDS011;53853;51.982;5.928;2024-03-08T03:53:05;21.73;;;18.02;;
66946;SDS011;53853;51.982;5.928;2024-03-08T03:55:35;22.73;;;19.45;;
66946;SDS011;53853;51.982;5.928;2024-03-08T03:58:05;21.48;;;17.65;;
66946;SDS011;53853;51.982;5.928;2024-03-08T04:00:35;26.02;;;19.92;;
66946;SDS011;53853;51.982;5.928;2024-03-08T04:03:05;23.50;;;17.85;;
66946;SDS011;53853;51.982;5.928;2024-03-08T04:05:35;21.00;;;17.73;;
66946;SDS011;53853;51.982;5.928;2024-03-08T04:08:07;26.10;;;19.20;;
66946;SDS011;53853;51.982;5.928;2024-03-08T04:10:37;25.58;;;19.08;;
66946;SDS011;53853;51.982;5.928;2024-03-08T04:13:07;21.85;;;18.08;;
66946;SDS011;53853;51.982;5.928;2024-03-08T04:15:37;23.02;;;18.60;;
66946;SDS011;53853;51.982;5.928;2024-03-08T04:18:09;25.02;;;19.17;;
66946;SDS011;53853;51.982;5.928;2024-03-08T04:20:39;20.75;;;17.42;;
66946;SDS011;53853;51.982;5.928;2024-03-08T04:23:12;25.25;;;19.90;;
66946;SDS011;53853;51.982;5.928;2024-03-08T04:25:41;24.40;;;19.58;;
66946;SDS011;53853;51.982;5.928;2024-03-08T04:28:12;23.23;;;18.00;;
66946;SDS011;53853;51.982;5.928;2024-03-08T04:30:43;29.38;;;21.45;;
66946;SDS011;53853;51.982;5.928;2024-03-08T04:33:12;25.52;;;18.80;;
66946;SDS011;53853;51.982;5.928;2024-03-08T04:35:44;20.88;;;17.83;;
66946;SDS011;53853;51.982;5.928;2024-03-08T04:38:17;23.35;;;18.05;;
66946;SDS011;53853;51.982;5.928;2024-03-08T04:40:46;24.63;;;19.70;;
66946;SDS011;53853;51.982;5.928;2024-03-08T04:43:17;22.88;;;18.45;;
66946;SDS011;53853;51.982;5.928;2024-03-08T04:45:47;21.83;;;18.23;;
66946;SDS011;53853;51.982;5.928;2024-03-08T04:48:16;23.77;;;19.88;;
66946;SDS011;53853;51.982;5.928;2024-03-08T04:50:46;23.38;;;19.02;;
66946;SDS011;53853;51.982;5.928;2024-03-08T04:53:19;19.52;;;16.83;;
66946;SDS011;53853;51.982;5.928;2024-03-08T04:55:49;20.38;;;16.27;;
66946;SDS011;53853;51.982;5.928;2024-03-08T04:58:18;22.80;;;18.80;;
66946;SDS011;53853;51.982;5.928;2024-03-08T05:00:49;22.13;;;18.27;;
66946;SDS011;53853;51.982;5.928;2024-03-08T05:03:19;24.60;;;19.80;;
66946;SDS011;53853;51.982;5.928;2024-03-08T05:05:52;29.47;;;21.97;;
66946;SDS011;53853;51.982;5.928;2024-03-08T05:08:24;22.13;;;18.60;;
66946;SDS011;53853;51.982;5.928;2024-03-08T05:10:54;23.13;;;18.08;;
66946;SDS011;53853;51.982;5.928;2024-03-08T05:13:25;22.35;;;18.13;;
66946;SDS011;53853;51.982;5.928;2024-03-08T05:15:56;20.90;;;18.05;;
66946;SDS011;53853;51.982;5.928;2024-03-08T05:18:26;21.33;;;17.77;;
66946;SDS011;53853;51.982;5.928;2024-03-08T05:20:58;23.23;;;19.35;;
66946;SDS011;53853;51.982;5.928;2024-03-08T05:23:32;24.00;;;19.27;;
66946;SDS011;53853;51.982;5.928;2024-03-08T05:26:02;19.60;;;17.50;;
66946;SDS011;53853;51.982;5.928;2024-03-08T05:28:32;20.77;;;16.85;;
66946;SDS011;53853;51.982;5.928;2024-03-08T05:31:02;24.75;;;19.85;;
66946;SDS011;53853;51.982;5.928;2024-03-08T05:33:32;23.67;;;19.55;;
66946;SDS011;53853;51.982;5.928;2024-03-08T05:36:02;23.88;;;20.50;;
66946;SDS011;53853;51.982;5.928;2024-03-08T05:38:35;22.60;;;19.48;;
66946;SDS011;53853;51.982;5.928;2024-03-08T05:41:07;23.05;;;20.50;;
66946;SDS011;53853;51.982;5.928;2024-03-08T05:43:37;27.35;;;20.15;;
66946;SDS011;53853;51.982;5.928;2024-03-08T05:46:09;28.55;;;22.90;;
66946;SDS011;53853;51.982;5.928;2024-03-08T05:48:39;26.65;;;20.95;;
66946;SDS011;53853;51.982;5.928;2024-03-08T05:51:09;26.55;;;20.65;;
66946;SDS011;53853;51.982;5.928;2024-03-08T05:53:41;24.75;;;21.60;;
66946;SDS011;53853;51.982;5.928;2024-03-08T05:56:11;21.83;;;18.33;;
66946;SDS011;53853;51.982;5.928;2024-03-08T05:58:41;28.63;;;21.98;;
66946;SDS011;53853;51.982;5.928;2024-03-08T06:01:11;22.90;;;18.88;;
66946;SDS011;53853;51.982;5.928;2024-03-08T06:03:41;26.95;;;20.42;;
66946;SDS011;53853;51.982;5.928;2024-03-08T06:06:13;28.65;;;21.50;;
66946;SDS011;53853;51.982;5.928;2024-03-08T06:08:46;25.00;;;19.45;;
66946;SDS011;53853;51.982;5.928;2024-03-08T06:11:16;22.58;;;18.33;;
66946;SDS011;53853;51.982;5.928;2024-03-08T06:13:47;24.92;;;20.17;;
66946;SDS011;53853;51.982;5.928;2024-03-08T06:16:17;23.52;;;18.42;;
66946;SDS011;53853;51.982;5.928;2024-03-08T06:18:47;29.13;;;21.08;;
66946;SDS011;53853;51.982;5.928;2024-03-08T06:21:16;29.08;;;23.52;;
66946;SDS011;53853;51.982;5.928;2024-03-08T06:23:51;28.67;;;23.15;;
66946;SDS011;53853;51.982;5.928;2024-03-08T06:26:23;26.92;;;21.30;;
66946;SDS011;53853;51.982;5.928;2024-03-08T06:28:54;28.35;;;23.73;;
66946;SDS011;53853;51.982;5.928;2024-03-08T06:31:24;26.30;;;22.20;;
66946;SDS011;53853;51.982;5.928;2024-03-08T06:33:54;23.33;;;20.25;;
66946;SDS011;53853;51.982;5.928;2024-03-08T06:36:24;23.02;;;19.65;;
66946;SDS011;53853;51.982;5.928;2024-03-08T06:38:56;24.63;;;19.55;;
66946;SDS011;53853;51.982;5.928;2024-03-08T06:41:26;23.75;;;19.08;;
66946;SDS011;53853;51.982;5.928;2024-03-08T06:43:57;26.05;;;20.23;;
66946;SDS011;53853;51.982;5.928;2024-03-08T06:46:27;29.45;;;24.45;;
66946;SDS011;53853;51.982;5.928;2024-03-08T06:48:57;29.35;;;23.85;;
66946;SDS011;53853;51.982;5.928;2024-03-08T06:51:27;24.65;;;21.40;;
66946;SDS011;53853;51.982;5.928;2024-03-08T06:54:00;30.02;;;24.17;;
66946;SDS011;53853;51.982;5.928;2024-03-08T06:56:34;29.90;;;22.25;;
66946;SDS011;53853;51.982;5.928;2024-03-08T06:59:04;25.63;;;20.45;;
66946;SDS011;53853;51.982;5.928;2024-03-08T07:01:36;31.60;;;23.88;;
66946;SDS011;53853;51.982;5.928;2024-03-08T07:04:06;28.70;;;22.75;;
66946;SDS011;53853;51.982;5.928;2024-03-08T07:06:37;25.42;;;21.10;;
66946;SDS011;53853;51.982;5.928;2024-03-08T07:09:10;31.40;;;21.98;;
66946;SDS011;53853;51.982;5.928;2024-03-08T07:11:42;28.40;;;22.05;;
66946;SDS011;53853;51.982;5.928;2024-03-08T07:14:12;27.15;;;21.02;;
66946;SDS011;53853;51.982;5.928;2024-03-08T07:16:42;29.58;;;23.13;;
66946;SDS011;53853;51.982;5.928;2024-03-08T07:19:12;29.45;;;22.95;;
66946;SDS011;53853;51.982;5.928;2024-03-08T07:21:42;29.77;;;25.08;;
66946;SDS011;53853;51.982;5.928;2024-03-08T07:24:15;28.90;;;22.40;;
66946;SDS011;53853;51.982;5.928;2024-03-08T07:27:05;30.77;;;24.65;;
66946;SDS011;53853;51.982;5.928;2024-03-08T07:29:36;36.42;;;27.13;;
66946;SDS011;53853;51.982;5.928;2024-03-08T07:32:05;29.35;;;23.45;;
66946;SDS011;53853;51.982;5.928;2024-03-08T07:34:47;29.90;;;24.33;;
66946;SDS011;53853;51.982;5.928;2024-03-08T07:37:17;27.95;;;22.35;;
66946;SDS011;53853;51.982;5.928;2024-03-08T07:39:50;27.92;;;22.95;;
66946;SDS011;53853;51.982;5.928;2024-03-08T07:42:20;28.95;;;24.58;;
66946;SDS011;53853;51.982;5.928;2024-03-08T07:44:50;26.50;;;21.67;;
66946;SDS011;53853;51.982;5.928;2024-03-08T07:47:20;32.00;;;25.27;;
66946;SDS011;53853;51.982;5.928;2024-03-08T07:49:52;29.20;;;22.20;;
66946;SDS011;53853;51.982;5.928;2024-03-08T07:52:22;28.15;;;22.80;;
66946;SDS011;53853;51.982;5.928;2024-03-08T07:54:54;31.98;;;26.90;;
66946;SDS011;53853;51.982;5.928;2024-03-08T07:57:25;29.02;;;23.05;;
66946;SDS011;53853;51.982;5.928;2024-03-08T07:59:55;30.33;;;24.75;;
66946;SDS011;53853;51.982;5.928;2024-03-08T08:02:25;35.00;;;26.77;;
66946;SDS011;53853;51.982;5.928;2024-03-08T08:04:56;31.55;;;25.85;;
66946;SDS011;53853;51.982;5.928;2024-03-08T08:07:26;28.35;;;22.80;;
66946;SDS011;53853;51.982;5.928;2024-03-08T08:09:58;27.70;;;24.02;;
66946;SDS011;53853;51.982;5.928;2024-03-08T08:12:28;34.42;;;26.00;;
66946;SDS011;53853;51.982;5.928;2024-03-08T08:15:00;36.03;;;23.40;;
66946;SDS011;53853;51.982;5.928;2024-03-08T08:17:30;33.58;;;25.38;;
66946;SDS011;53853;51.982;5.928;2024-03-08T08:20:03;29.13;;;23.80;;
66946;SDS011;53853;51.982;5.928;2024-03-08T08:22:34;29.55;;;24.55;;
66946;SDS011;53853;51.982;5.928;2024-03-08T08:25:07;30.23;;;24.70;;
66946;SDS011;53853;51.982;5.928;2024-03-08T08:27:38;31.42;;;26.45;;
66946;SDS011;53853;51.982;5.928;2024-03-08T08:30:09;31.42;;;25.85;;
66946;SDS011;53853;51.982;5.928;2024-03-08T08:32:40;29.05;;;24.23;;
66946;SDS011;53853;51.982;5.928;2024-03-08T08:35:10;32.17;;;27.50;;
66946;SDS011;53853;51.982;5.928;2024-03-08T08:37:40;30.02;;;24.80;;
66946;SDS011;53853;51.982;5.928;2024-03-08T08:40:13;26.42;;;22.80;;
66946;SDS011;53853;51.982;5.928;2024-03-08T08:42:45;27.38;;;23.05;;
66946;SDS011;53853;51.982;5.928;2024-03-08T08:45:14;32.08;;;24.73;;
66946;SDS011;53853;51.982;5.928;2024-03-08T08:47:45;33.30;;;25.95;;
66946;SDS011;53853;51.982;5.928;2024-03-08T08:50:15;29.88;;;25.77;;
66946;SDS011;53853;51.982;5.928;2024-03-08T08:52:49;30.85;;;24.08;;
66946;SDS011;53853;51.982;5.928;2024-03-08T08:55:21;29.88;;;23.77;;
66946;SDS011;53853;51.982;5.928;2024-03-08T08:57:52;31.23;;;25.13;;
66946;SDS011;53853;51.982;5.928;2024-03-08T09:00:22;30.15;;;24.50;;
66946;SDS011;53853;51.982;5.928;2024-03-08T09:02:52;34.70;;;26.63;;
66946;SDS011;53853;51.982;5.928;2024-03-08T09:05:23;30.25;;;24.63;;
66946;SDS011;53853;51.982;5.928;2024-03-08T09:07:53;29.52;;;24.83;;
66946;SDS011;53853;51.982;5.928;2024-03-08T09:10:26;33.00;;;25.80;;
66946;SDS011;53853;51.982;5.928;2024-03-08T09:12:56;30.90;;;24.65;;
66946;SDS011;53853;51.982;5.928;2024-03-08T09:15:30;29.25;;;24.67;;
66946;SDS011;53853;51.982;5.928;2024-03-08T09:17:59;26.90;;;23.33;;
66946;SDS011;53853;51.982;5.928;2024-03-08T09:20:31;29.20;;;24.13;;
66946;SDS011;53853;51.982;5.928;2024-03-08T09:23:02;31.17;;;25.60;;
66946;SDS011;53853;51.982;5.928;2024-03-08T09:25:36;32.85;;;24.75;;
66946;SDS011;53853;51.982;5.928;2024-03-08T09:28:06;24.77;;;20.95;;
66946;SDS011;53853;51.982;5.928;2024-03-08T09:30:37;28.00;;;23.17;;
66946;SDS011;53853;51.982;5.928;2024-03-08T09:33:08;29.27;;;24.45;;
66946;SDS011;53853;51.982;5.928;2024-03-08T09:35:44;27.75;;;24.75;;
66946;SDS011;53853;51.982;5.928;2024-03-08T09:38:17;29.73;;;25.60;;
66946;SDS011;53853;51.982;5.928;2024-03-08T09:40:49;28.58;;;22.98;;
66946;SDS011;53853;51.982;5.928;2024-03-08T09:43:22;30.85;;;26.33;;
66946;SDS011;53853;51.982;5.928;2024-03-08T09:45:54;32.00;;;25.48;;
66946;SDS011;53853;51.982;5.928;2024-03-08T09:48:25;28.95;;;23.75;;
66946;SDS011;53853;51.982;5.928;2024-03-08T09:50:55;24.75;;;20.77;;
66946;SDS011;53853;51.982;5.928;2024-03-08T09:53:25;27.15;;;21.45;;
66946;SDS011;53853;51.982;5.928;2024-03-08T09:55:58;30.40;;;24.20;;
66946;SDS011;53853;51.982;5.928;2024-03-08T09:58:29;29.10;;;25.48;;
66946;SDS011;53853;51.982;5.928;2024-03-08T10:01:20;27.77;;;23.83;;
66946;SDS011;53853;51.982;5.928;2024-03-08T10:03:52;27.40;;;21.63;;
66946;SDS011;53853;51.982;5.928;2024-03-08T10:06:22;26.88;;;23.00;;
66946;SDS011;53853;51.982;5.928;2024-03-08T10:08:52;30.80;;;24.85;;
66946;SDS011;53853;51.982;5.928;2024-03-08T10:11:26;27.95;;;23.45;;
66946;SDS011;53853;51.982;5.928;2024-03-08T10:13:56;23.98;;;21.38;;
66946;SDS011;53853;51.982;5.928;2024-03-08T10:16:26;25.40;;;22.63;;
66946;SDS011;53853;51.982;5.928;2024-03-08T10:18:56;25.92;;;22.25;;
66946;SDS011;53853;51.982;5.928;2024-03-08T10:21:26;25.98;;;22.27;;
66946;SDS011;53853;51.982;5.928;2024-03-08T10:23:56;25.38;;;21.33;;
66946;SDS011;53853;51.982;5.928;2024-03-08T10:26:29;23.70;;;21.27;;
66946;SDS011;53853;51.982;5.928;2024-03-08T10:29:00;27.13;;;22.73;;
66946;SDS011;53853;51.982;5.928;2024-03-08T10:31:33;30.02;;;24.23;;
66946;SDS011;53853;51.982;5.928;2024-03-08T10:34:02;28.58;;;23.27;;
66946;SDS011;53853;51.982;5.928;2024-03-08T10:36:32;24.45;;;21.02;;
66946;SDS011;53853;51.982;5.928;2024-03-08T10:39:05;24.83;;;21.17;;
66946;SDS011;53853;51.982;5.928;2024-03-08T10:41:48;28.90;;;22.05;;
66946;SDS011;53853;51.982;5.928;2024-03-08T10:47:23;26.80;;;22.50;;
66946;SDS011;53853;51.982;5.928;2024-03-08T10:49:59;26.15;;;22.83;;
66946;SDS011;53853;51.982;5.928;2024-03-08T10:52:39;27.23;;;22.48;;
66946;SDS011;53853;51.982;5.928;2024-03-08T10:55:09;28.15;;;23.08;;
66946;SDS011;53853;51.982;5.928;2024-03-08T10:57:43;24.60;;;21.63;;
66946;SDS011;53853;51.982;5.928;2024-03-08T11:00:13;25.00;;;21.70;;
66946;SDS011;53853;51.982;5.928;2024-03-08T11:02:52;24.10;;;19.60;;
66946;SDS011;53853;51.982;5.928;2024-03-08T11:05:32;26.42;;;20.83;;
66946;SDS011;53853;51.982;5.928;2024-03-08T11:08:15;23.83;;;21.15;;
66946;SDS011;53853;51.982;5.928;2024-03-08T11:10:49;28.52;;;20.70;;
66946;SDS011;53853;51.982;5.928;2024-03-08T11:13:34;28.10;;;20.27;;
66946;SDS011;53853;51.982;5.928;2024-03-08T11:16:07;25.02;;;20.00;;
66946;SDS011;53853;51.982;5.928;2024-03-08T11:18:38;24.02;;;19.63;;
66946;SDS011;53853;51.982;5.928;2024-03-08T11:21:08;25.75;;;20.75;;
66946;SDS011;53853;51.982;5.928;2024-03-08T11:23:40;22.50;;;20.05;;
66946;SDS011;53853;51.982;5.928;2024-03-08T11:26:19;22.88;;;19.77;;
66946;SDS011;53853;51.982;5.928;2024-03-08T11:28:54;22.63;;;19.35;;
66946;SDS011;53853;51.982;5.928;2024-03-08T11:31:24;21.48;;;18.65;;
66946;SDS011;53853;51.982;5.928;2024-03-08T11:33:55;26.33;;;20.80;;
66946;SDS011;53853;51.982;5.928;2024-03-08T11:36:25;21.77;;;18.98;;
66946;SDS011;53853;51.982;5.928;2024-03-08T11:38:57;21.10;;;18.67;;
66946;SDS011;53853;51.982;5.928;2024-03-08T11:41:35;19.42;;;17.02;;
66946;SDS011;53853;51.982;5.928;2024-03-08T11:44:09;25.17;;;19.58;;
66946;SDS011;53853;51.982;5.928;2024-03-08T11:46:41;22.42;;;19.42;;
66946;SDS011;53853;51.982;5.928;2024-03-08T11:49:13;21.40;;;18.83;;
66946;SDS011;53853;51.982;5.928;2024-03-08T11:51:43;20.33;;;17.83;;
66946;SDS011;53853;51.982;5.928;2024-03-08T11:54:13;22.25;;;19.38;;
66946;SDS011;53853;51.982;5.928;2024-03-08T11:56:44;21.73;;;17.73;;
66946;SDS011;53853;51.982;5.928;2024-03-08T11:59:18;20.02;;;16.05;;
66946;SDS011;53853;51.982;5.928;2024-03-08T12:02:00;21.63;;;17.95;;
66946;SDS011;53853;51.982;5.928;2024-03-08T12:04:31;21.13;;;17.65;;
66946;SDS011;53853;51.982;5.928;2024-03-08T12:07:02;18.23;;;15.50;;
66946;SDS011;53853;51.982;5.928;2024-03-08T12:09:35;20.20;;;17.60;;
66946;SDS011;53853;51.982;5.928;2024-03-08T12:12:06;20.95;;;18.42;;
66946;SDS011;53853;51.982;5.928;2024-03-08T12:14:40;23.98;;;20.27;;
66946;SDS011;53853;51.982;5.928;2024-03-08T12:17:13;22.35;;;18.65;;
66946;SDS011;53853;51.982;5.928;2024-03-08T12:19:45;21.25;;;17.48;;
66946;SDS011;53853;51.982;5.928;2024-03-08T12:22:15;25.38;;;19.92;;
66946;SDS011;53853;51.982;5.928;2024-03-08T12:24:45;26.85;;;19.83;;
66946;SDS011;53853;51.982;5.928;2024-03-08T12:27:36;21.17;;;18.88;;
66946;SDS011;53853;51.982;5.928;2024-03-08T12:30:19;20.83;;;17.80;;
66946;SDS011;53853;51.982;5.928;2024-03-08T12:32:53;22.40;;;18.15;;
66946;SDS011;53853;51.982;5.928;2024-03-08T12:35:26;21.70;;;19.38;;
66946;SDS011;53853;51.982;5.928;2024-03-08T12:37:59;20.00;;;17.80;;
66946;SDS011;53853;51.982;5.928;2024-03-08T12:40:30;19.95;;;17.80;;
66946;SDS011;53853;51.982;5.928;2024-03-08T12:43:02;21.90;;;19.60;;
66946;SDS011;53853;51.982;5.928;2024-03-08T12:45:35;23.00;;;19.05;;
66946;SDS011;53853;51.982;5.928;2024-03-08T12:48:11;19.38;;;17.40;;
66946;SDS011;53853;51.982;5.928;2024-03-08T12:50:43;23.98;;;18.95;;
66946;SDS011;53853;51.982;5.928;2024-03-08T12:53:13;19.48;;;17.38;;
66946;SDS011;53853;51.982;5.928;2024-03-08T12:55:43;22.75;;;20.10;;
66946;SDS011;53853;51.982;5.928;2024-03-08T12:58:13;23.90;;;19.65;;
66946;SDS011;53853;51.982;5.928;2024-03-08T13:00:46;20.88;;;17.83;;
66946;SDS011;53853;51.982;5.928;2024-03-08T13:03:16;23.45;;;20.63;;
66946;SDS011;53853;51.982;5.928;2024-03-08T13:05:46;22.52;;;20.13;;
66946;SDS011;53853;51.982;5.928;2024-03-08T13:08:18;23.80;;;20.50;;
66946;SDS011;53853;51.982;5.928;2024-03-08T13:10:50;21.45;;;19.08;;
66946;SDS011;53853;51.982;5.928;2024-03-08T13:13:20;21.15;;;18.25;;
66946;SDS011;53853;51.982;5.928;2024-03-08T13:15:53;22.52;;;20.13;;
66946;SDS011;53853;51.982;5.928;2024-03-08T13:18:25;24.63;;;21.15;;
66946;SDS011;53853;51.982;5.928;2024-03-08T13:20:55;22.27;;;18.05;;
66946;SDS011;53853;51.982;5.928;2024-03-08T13:23:30;23.10;;;20.60;;
66946;SDS011;53853;51.982;5.928;2024-03-08T13:26:05;23.83;;;20.50;;
66946;SDS011;53853;51.982;5.928;2024-03-08T13:28:36;20.40;;;18.10;;
66946;SDS011;53853;51.982;5.928;2024-03-08T13:31:09;20.75;;;18.30;;
66946;SDS011;53853;51.982;5.928;2024-03-08T13:36:12;22.63;;;18.42;;
66946;SDS011;53853;51.982;5.928;2024-03-08T13:38:47;23.17;;;19.80;;
66946;SDS011;53853;51.982;5.928;2024-03-08T13:41:17;24.52;;;20.75;;
66946;SDS011;53853;51.982;5.928;2024-03-08T13:43:50;21.70;;;18.97;;
66946;SDS011;53853;51.982;5.928;2024-03-08T13:46:24;24.15;;;20.02;;
66946;SDS011;53853;51.982;5.928;2024-03-08T13:48:54;19.75;;;17.23;;
66946;SDS011;53853;51.982;5.928;2024-03-08T13:51:28;21.48;;;19.17;;
66946;SDS011;53853;51.982;5.928;2024-03-08T13:53:58;21.48;;;18.10;;
66946;SDS011;53853;51.982;5.928;2024-03-08T13:59:02;22.83;;;19.48;;
66946;SDS011;53853;51.982;5.928;2024-03-08T14:01:37;21.48;;;18.48;;
66946;SDS011;53853;51.982;5.928;2024-03-08T14:04:09;20.05;;;17.38;;
66946;SDS011;53853;51.982;5.928;2024-03-08T14:06:41;21.58;;;18.77;;
66946;SDS011;53853;51.982;5.928;2024-03-08T14:09:11;21.10;;;18.88;;
66946;SDS011;53853;51.982;5.928;2024-03-08T14:11:43;21.83;;;19.20;;
66946;SDS011;53853;51.982;5.928;2024-03-08T14:14:13;19.60;;;17.50;;
66946;SDS011;53853;51.982;5.928;2024-03-08T14:16:46;21.50;;;17.95;;
66946;SDS011;53853;51.982;5.928;2024-03-08T14:19:18;21.90;;;17.60;;
66946;SDS011;53853;51.982;5.928;2024-03-08T14:21:48;18.40;;;16.30;;
66946;SDS011;53853;51.982;5.928;2024-03-08T14:24:19;19.83;;;17.67;;
66946;SDS011;53853;51.982;5.928;2024-03-08T14:26:49;20.73;;;18.50;;
66946;SDS011;53853;51.982;5.928;2024-03-08T14:29:19;20.50;;;17.73;;
66946;SDS011;53853;51.982;5.928;2024-03-08T14:31:54;20.13;;;15.98;;
66946;SDS011;53853;51.982;5.928;2024-03-08T14:34:24;21.60;;;18.50;;
66946;SDS011;53853;51.982;5.928;2024-03-08T14:36:55;20.60;;;18.30;;
66946;SDS011;53853;51.982;5.928;2024-03-08T14:39:28;22.17;;;19.77;;
66946;SDS011;53853;51.982;5.928;2024-03-08T14:41:59;25.52;;;18.58;;
66946;SDS011;53853;51.982;5.928;2024-03-08T14:44:29;22.35;;;18.58;;
66946;SDS011;53853;51.982;5.928;2024-03-08T14:47:01;22.70;;;20.27;;
66946;SDS011;53853;51.982;5.928;2024-03-08T14:49:32;19.20;;;16.38;;
66946;SDS011;53853;51.982;5.928;2024-03-08T14:52:04;22.42;;;19.98;;
66946;SDS011;53853;51.982;5.928;2024-03-08T14:54:52;22.65;;;18.33;;